Latest Weather Observations for Port Fairy

IDV60801

Issued at 5:31 pm EST Sunday 5 July 2015 (issued every 30 minutes, with the page automatically refreshed every 10 minutes)

About weather observations | Map of weather stations | Latest weather observations for VIC | Other Formats
Station Details ID: 090175 Name: PORT FAIRY AWS Lat: -38.39 Lon: 142.23 Height: 10.0 m
Data from the previous 72 hours. | See also: Recent months at Port Fairy
Date/Time
EST
Temp
°C
App
Temp
°C
Dew
Point
Rel
Hum
%
Delta-T
°C
Wind Press
QNH
hPa
Press
MSL
hPa
Rain
since 9 am
mm
Dir
 
Spd
km/h
Gust
km/h
Spd
kts
Gust
kts
05/05:30pm 12.9 10.4 8.2 73 2.3 N 11 19 6 10 1015.1 1015.1 0.0
05/05:00pm 13.4 10.5 8.3 71 2.5 NNW 13 20 7 11 1015.0 1015.0 0.0
05/04:30pm 13.7 10.9 8.5 71 2.6 N 13 19 7 10 1015.0 1015.0 0.0
05/04:00pm 14.0 11.1 8.2 68 2.9 NNW 13 24 7 13 1015.0 1015.0 0.0
05/03:30pm 14.2 10.5 7.9 66 3.1 NNW 17 28 9 15 1015.0 1015.0 0.0
05/03:00pm 14.2 10.6 8.2 67 3.0 NNW 17 26 9 14 1015.1 1015.1 0.0
05/02:30pm 14.2 10.2 8.2 67 3.0 NNW 19 30 10 16 1015.2 1015.2 0.0
05/02:00pm 14.2 10.2 8.2 67 3.0 NNW 19 32 10 17 1015.4 1015.4 0.0
05/01:30pm 14.3 10.1 8.3 67 3.0 NNW 20 33 11 18 1015.8 1015.8 0.0
05/01:00pm 13.9 9.2 7.9 67 3.0 NNW 22 37 12 20 1016.0 1016.0 0.0
05/12:30pm 13.4 9.1 7.8 69 2.8 NNW 20 32 11 17 1016.4 1016.4 0.0
05/12:00pm 13.1 9.0 7.8 70 2.6 NNW 19 32 10 17 1016.7 1016.7 0.0
05/11:30am 13.1 8.8 8.0 71 2.5 NNW 20 37 11 20 1017.1 1017.1 0.0
05/11:00am 12.5 7.6 7.0 69 2.6 NNW 22 32 12 17 1017.6 1017.6 0.0
05/10:30am 12.0 7.5 7.1 72 2.3 N 20 32 11 17 1017.7 1017.7 0.0
05/10:00am 10.7 6.7 6.5 75 2.0 NNW 17 28 9 15 1017.9 1017.9 0.0
05/09:30am 10.2 6.2 6.5 78 1.7 NNW 17 28 9 15 1018.2 1018.2 0.0
05/09:00am 9.5 5.8 6.4 81 1.4 NNW 15 26 8 14 1018.2 1018.2 0.0
05/08:30am 9.2 5.5 6.5 83 1.3 NNW 15 24 8 13 1018.2 1018.2 0.0
05/08:00am 8.6 5.3 6.4 86 1.0 N 13 19 7 10 1018.1 1018.1 0.0
05/07:30am 8.2 4.9 6.2 87 0.9 N 13 19 7 10 1018.2 1018.2 0.0
05/07:00am 7.8 4.8 5.9 88 0.9 N 11 17 6 9 1018.1 1018.1 0.0
05/06:30am 7.8 4.8 5.8 87 0.9 NNW 11 17 6 9 1018.0 1018.0 0.0
05/06:00am 8.0 4.6 6.0 87 0.9 NNW 13 19 7 10 1018.1 1018.1 0.0
05/05:30am 8.2 5.2 6.2 87 0.9 N 11 19 6 10 1018.0 1018.0 0.0
05/05:00am 8.4 5.4 6.2 86 1.0 N 11 15 6 8 1017.8 1017.8 0.0
05/04:30am 8.8 5.9 6.4 85 1.1 N 11 17 6 9 1017.8 1017.8 0.0
05/04:00am 9.2 6.0 6.8 85 1.1 NNW 13 19 7 10 1018.1 1018.1 0.0
05/03:30am 9.4 6.3 7.2 86 1.0 NNW 13 19 7 10 1018.3 1018.3 0.0
05/03:00am 9.7 6.3 7.5 86 1.0 NNW 15 20 8 11 1018.5 1018.5 0.0
05/02:30am 9.9 5.8 7.7 86 1.1 NNW 19 24 10 13 1018.4 1018.4 0.0
05/02:00am 10.0 6.6 7.8 86 1.1 NNW 15 28 8 15 1018.6 1018.6 0.0
05/01:30am 10.2 6.5 8.1 87 1.0 NNW 17 28 9 15 1018.6 1018.6 0.0
05/01:00am 10.3 7.0 8.2 87 1.0 NNW 15 26 8 14 1018.8 1018.8 0.0
05/12:30am 10.3 7.5 8.4 88 0.9 NNW 13 22 7 12 1018.9 1018.9 0.0
05/12:00am 10.1 6.8 8.2 88 0.9 NNW 15 24 8 13 1019.2 1019.2 0.0
 
Date/Time
EST
Temp
°C
App
Temp
°C
Dew
Point
Rel
Hum
%
Delta-T
°C
Wind Press
QNH
hPa
Press
MSL
hPa
Rain
since 9 am
mm
Dir
 
Spd
km/h
Gust
km/h
Spd
kts
Gust
kts
04/11:30pm 10.3 7.1 8.4 88 0.9 NNW 15 22 8 12 1019.5 1019.5 0.0
04/11:00pm 10.1 6.1 8.4 89 0.8 NNW 19 26 10 14 1019.7 1019.7 0.0
04/10:30pm 9.8 6.9 8.2 90 0.8 NNW 13 20 7 11 1020.0 1020.0 0.0
04/10:00pm 9.9 7.0 8.2 89 0.8 NNW 13 26 7 14 1020.1 1020.1 0.0
04/09:30pm 10.0 7.2 8.4 90 0.8 NNW 13 22 7 12 1020.2 1020.2 0.0
04/09:00pm 9.9 6.7 8.3 90 0.8 NNW 15 24 8 13 1020.2 1020.2 0.0
04/08:30pm 9.9 6.7 8.5 91 0.7 NNW 15 20 8 11 1020.4 1020.4 0.0
04/08:00pm 9.6 6.7 8.2 91 0.7 NNW 13 19 7 10 1020.5 1020.5 0.0
04/07:30pm 9.8 7.0 8.4 91 0.7 NNW 13 20 7 11 1020.3 1020.3 0.0
04/07:00pm 9.8 6.9 8.2 90 0.8 NNW 13 19 7 10 1020.3 1020.3 0.0
04/06:30pm 10.0 7.1 8.3 89 0.8 NNW 13 20 7 11 1020.3 1020.3 0.0
04/06:00pm 10.4 7.2 8.5 88 0.9 NNW 15 20 8 11 1020.2 1020.2 0.0
04/05:30pm 10.7 7.6 8.8 88 0.9 NNW 15 22 8 12 1020.2 1020.2 0.0
04/05:00pm 11.1 8.1 9.2 88 0.9 NNW 15 26 8 14 1020.2 1020.2 0.0
04/04:30pm 11.6 9.0 9.5 87 1.1 NNW 13 20 7 11 1020.3 1020.3 0.0
04/04:00pm 11.8 8.9 9.7 87 1.1 NNW 15 22 8 12 1020.3 1020.3 0.0
04/03:30pm 11.9 8.3 10.0 88 1.0 NW 19 28 10 15 1020.3 1020.3 0.0
04/03:00pm 11.8 8.9 9.7 87 1.1 NNW 15 28 8 15 1020.3 1020.3 0.0
04/02:30pm 11.8 9.3 9.7 87 1.1 NNW 13 20 7 11 1020.3 1020.3 0.0
04/02:00pm 11.9 9.4 9.8 87 1.1 NW 13 26 7 14 1020.4 1020.4 0.0
04/01:30pm 11.9 8.2 9.6 86 1.2 NNW 19 28 10 15 1020.6 1020.6 0.0
04/01:00pm 11.9 8.2 9.5 85 1.2 NNW 19 30 10 16 1020.8 1020.8 0.0
04/12:30pm 11.5 8.5 9.1 85 1.2 NNW 15 24 8 13 1021.2 1021.2 0.0
04/12:00pm 10.9 7.3 8.3 84 1.3 NNW 17 24 9 13 1021.6 1021.6 0.0
04/11:30am 11.1 7.4 8.1 82 1.5 NNW 17 24 9 13 1021.9 1021.9 0.0
04/11:00am 10.5 6.8 7.9 84 1.3 NNW 17 28 9 15 1022.3 1022.3 0.0
04/10:30am 10.2 6.4 7.4 83 1.3 NNW 17 26 9 14 1022.2 1022.2 0.0
04/10:00am 10.1 6.2 7.3 83 1.3 NNW 17 26 9 14 1022.0 1022.0 0.0
04/09:30am 9.9 6.0 7.2 83 1.3 NNW 17 24 9 13 1021.8 1021.8 0.0
04/09:00am 9.8 5.8 6.7 81 1.4 NNW 17 24 9 13 1021.7 1021.7 0.0
04/08:30am 9.5 5.4 6.0 79 1.6 NNW 17 28 9 15 1021.6 1021.6 0.0
04/08:00am 9.2 4.6 5.6 78 1.6 NNW 19 30 10 16 1021.3 1021.3 0.0
04/07:30am 9.3 4.7 5.5 77 1.7 NNW 19 26 10 14 1021.2 1021.2 0.0
04/07:00am 9.1 4.7 4.9 75 1.9 NNW 17 28 9 15 1021.2 1021.2 0.0
04/06:30am 9.3 5.0 5.1 75 1.9 NNW 17 26 9 14 1020.9 1020.9 0.0
04/06:00am 9.4 4.7 5.0 74 2.0 NNW 19 26 10 14 1020.7 1020.7 0.0
04/05:30am 9.3 4.5 4.7 73 2.0 NNW 19 28 10 15 1020.7 1020.7 0.0
04/05:00am 9.3 4.3 4.7 73 2.0 NNW 20 33 11 18 1020.6 1020.6 0.0
04/04:30am 9.1 4.0 4.3 72 2.1 NNW 20 32 11 17 1020.6 1020.6 0.0
04/04:00am 9.2 4.1 4.2 71 2.2 NNW 20 33 11 18 1020.9 1020.9 0.0
04/03:30am 9.1 4.0 4.1 71 2.2 NNW 20 32 11 17 1021.2 1021.2 0.0
04/03:00am 8.8 3.9 4.2 73 2.0 NNW 19 33 10 18 1021.4 1021.4 0.0
04/02:30am 8.6 3.7 4.2 74 1.9 NNW 19 30 10 16 1021.4 1021.4 0.0
04/02:00am 8.7 3.8 4.3 74 1.9 NNW 19 30 10 16 1021.6 1021.6 0.0
04/01:30am 8.7 3.8 3.9 72 2.1 NNW 19 28 10 15 1021.8 1021.8 0.0
04/01:00am 8.8 4.2 3.6 70 2.2 NNW 17 28 9 15 1022.2 1022.2 0.0
04/12:30am 8.6 4.3 3.4 70 2.2 NNW 15 26 8 14 1022.6 1022.6 0.0
04/12:00am 8.5 4.2 3.4 70 2.2 NNW 15 22 8 12 1022.7 1022.7 0.0
 
Date/Time
EST
Temp
°C
App
Temp
°C
Dew
Point
Rel
Hum
%
Delta-T
°C
Wind Press
QNH
hPa
Press
MSL
hPa
Rain
since 9 am
mm
Dir
 
Spd
km/h
Gust
km/h
Spd
kts
Gust
kts
03/11:30pm 8.1 3.4 3.2 71 2.1 NNW 17 24 9 13 1022.8 1022.8 0.0
03/11:00pm 8.2 3.9 3.3 71 2.1 NNW 15 22 8 12 1023.1 1023.1 0.0
03/10:30pm 8.1 3.8 3.4 72 2.0 NNW 15 22 8 12 1023.2 1023.2 0.0
03/10:00pm 8.2 3.9 3.3 71 2.1 NNW 15 24 8 13 1023.4 1023.5 0.0
03/09:30pm 8.2 3.6 3.5 72 2.0 NNW 17 26 9 14 1023.6 1023.7 0.0
03/09:00pm 8.0 3.7 3.5 73 1.9 NNW 15 22 8 12 1023.9 1024.0 0.0
03/08:30pm 8.1 3.9 3.6 73 1.9 NNW 15 20 8 11 1024.1 1024.2 0.0
03/08:00pm 8.0 4.1 3.5 73 1.9 NNW 13 22 7 12 1024.3 1024.4 0.0
03/07:30pm 8.1 4.2 3.6 73 1.9 NNW 13 19 7 10 1024.4 1024.5 0.0
03/07:00pm 8.4 4.6 3.7 72 2.0 NNW 13 22 7 12 1024.4 1024.5 0.0
03/06:30pm 8.6 5.2 3.8 72 2.1 NNW 11 17 6 9 1024.3 1024.4 0.0
03/06:00pm 8.7 5.2 3.7 71 2.1 NNW 11 20 6 11 1024.4 1024.5 0.0
03/05:30pm 9.0 5.5 3.4 68 2.4 NNW 11 17 6 9 1024.5 1024.6 0.0
03/05:00pm 9.3 5.3 3.1 65 2.6 NNW 13 24 7 13 1024.8 1024.9 0.0
03/04:30pm 9.7 6.2 3.4 65 2.7 NNW 11 19 6 10 1025.1 1025.2 0.0
03/04:00pm 10.0 6.5 3.5 64 2.8 NNW 11 17 6 9 1025.2 1025.3 0.0
03/03:30pm 10.3 5.9 2.7 59 3.3 NNW 15 22 8 12 1025.1 1025.2 0.0
03/03:00pm 10.2 6.2 2.8 60 3.2 NNW 13 19 7 10 1025.4 1025.5 0.0
03/02:30pm 10.5 5.8 3.1 60 3.2 NNW 17 24 9 13 1025.4 1025.5 0.0
03/02:00pm 10.9 6.1 2.7 57 3.5 NNW 17 26 9 14 1025.6 1025.7 0.0
03/01:30pm 11.0 5.8 2.6 56 3.6 NW 19 30 10 16 1026.1 1026.2 0.0
03/01:00pm 10.6 5.6 3.6 62 3.1 NNW 19 30 10 16 1026.5 1026.6 0.0
03/12:30pm 10.2 6.0 3.9 65 2.8 NNW 15 22 8 12 1027.1 1027.2 0.0
03/12:00pm 9.8 5.2 3.8 66 2.6 NNW 17 32 9 17 1027.6 1027.7 0.0
03/11:30am 9.8 6.0 4.0 67 2.6 NNW 13 22 7 12 1028.1 1028.2 0.0
03/11:00am 9.9 6.3 4.9 71 2.2 NNW 13 19 7 10 1028.0 1028.1 0.0
03/10:30am 8.9 5.7 5.1 77 1.7 N 11 17 6 9 1028.3 1028.4 0.0
03/10:00am 8.1 5.4 5.4 83 1.2 NNW 9 15 5 8 1028.5 1028.6 0.0
03/09:30am 6.8 3.9 4.5 85 1.0 NNW 9 15 5 8 1028.5 1028.6 0.0
03/09:00am 6.3 3.3 4.1 86 0.9 NNW 9 13 5 7 1028.7 1028.8 0.0
03/08:30am 6.0 3.3 3.8 86 0.9 N 7 13 4 7 1028.7 1028.8 0.0
03/08:00am 5.9 2.8 3.7 86 0.9 NNW 9 13 5 7 1028.6 1028.7 0.0
03/07:30am 6.1 3.7 4.1 87 0.9 NNW 6 9 3 5 1028.8 1028.9 0.0
03/07:00am 6.2 3.2 4.2 87 0.8 NNW 9 13 5 7 1028.3 1028.4 0.0
03/06:30am 6.2 2.8 3.9 85 1.0 NNW 11 17 6 9 1028.1 1028.2 0.0
03/06:00am 6.3 3.7 4.1 86 0.9 NNW 7 13 4 7 1028.0 1028.1 0.0
03/05:30am 6.2 3.5 3.9 85 1.0 NNW 7 11 4 6 1028.0 1028.1 0.0
03/05:00am 6.4 3.4 4.1 85 1.0 NNW 9 15 5 8 1028.1 1028.2 0.0
03/04:30am 6.3 3.3 4.0 85 1.0 NNW 9 13 5 7 1028.1 1028.2 0.0
03/04:00am 5.9 2.8 3.4 84 1.0 NNW 9 13 5 7 1028.3 1028.4 0.0
03/03:30am 5.2 2.3 2.4 82 1.1 NW 7 9 4 5 1028.3 1028.4 0.0
03/03:00am 5.0 2.1 1.7 79 1.3 NW 6 7 3 4 1028.4 1028.5 0.0
03/02:30am 5.3 2.7 1.2 75 1.6 NNW 4 6 2 3 1028.4 1028.5 0.0
03/02:00am 7.2 5.1 1.7 68 2.2 N 2 7 1 4 1028.3 1028.4 0.0
03/01:30am 10.0 5.2 2.8 61 3.1 SW 17 20 9 11 1028.8 1028.9 0.0
03/01:00am 9.6 6.6 4.2 69 2.4 SSW 9 17 5 9 1029.1 1029.2 0.0
03/12:30am 9.4 4.7 3.4 66 2.6 SW 17 24 9 13 1029.5 1029.6 0.0
03/12:00am 10.1 5.9 3.8 65 2.7 SSW 15 24 8 13 1029.6 1029.7 0.0
 
Date/Time
EST
Temp
°C
App
Temp
°C
Dew
Point
Rel
Hum
%
Delta-T
°C
Wind Press
QNH
hPa
Press
MSL
hPa
Rain
since 9 am
mm
Dir
 
Spd
km/h
Gust
km/h
Spd
kts
Gust
kts
02/11:30pm 10.2 5.9 3.0 61 3.1 SW 15 20 8 11 1029.7 1029.8 0.0
02/11:00pm 10.3 5.5 2.7 59 3.2 SSW 17 24 9 13 1029.7 1029.8 0.0
02/10:30pm 10.3 5.2 4.0 65 2.8 SSW 20 28 11 15 1029.6 1029.7 0.0
02/10:00pm 10.3 5.1 3.8 64 2.8 SSW 20 30 11 16 1029.6 1029.7 0.0
02/09:30pm 10.6 5.7 3.9 63 3.0 SSW 19 24 10 13 1029.5 1029.6 0.0
02/09:00pm 10.4 5.1 3.2 61 3.1 SW 20 26 11 14 1029.3 1029.4 0.0
02/08:30pm 9.9 5.9 4.7 70 2.3 WSW 15 20 8 11 1029.4 1029.5 0.0
02/08:00pm 10.3 3.5 5.1 70 2.3 SW 30 39 16 21 1029.3 1029.4 0.0
02/07:30pm 10.9 4.8 5.0 67 2.7 SW 26 33 14 18 1029.0 1029.1 0.0
02/07:00pm 11.0 4.7 3.8 61 3.2 SW 26 35 14 19 1028.7 1028.8 0.0
02/06:30pm 11.0 5.9 3.3 59 3.4 SSW 19 28 10 15 1028.5 1028.6 0.0
02/06:00pm 10.9 5.7 3.7 61 3.2 SSW 20 28 11 15 1028.2 1028.3 0.0

Other Formats:

Comma delimited format used in spreadsheet applications
http://www.bom.gov.au/fwo/IDV60801/IDV60801.94830.axf

JavaScript Object Notation format (JSON) in row-major order
http://www.bom.gov.au/fwo/IDV60801/IDV60801.94830.json